Time;durP1;ratioP1;P1;durP2;ratioP2;P2;SDS_P1;SDS_P2;PMS_P1;PMS_P2;Temp;Humidity;BMP_temperature;BMP_pressure;BME280_temperature;BME280_humidity;BME280_pressure;Samples;Min_cycle;Max_cycle;Signal;HPM_P1;HPM_P2
2021/05/29 00:01:45;;;;;;;2.10;1.50;;;17.60;65.70;;;;;;10618197;27;20227;-22
2021/05/29 00:07:07;;;;;;;1.40;1.30;;;17.70;66.10;;;;;;10619297;28;20262;-23
2021/05/29 00:12:29;;;;;;;1.47;1.37;;;17.70;65.50;;;;;;10619114;27;20210;-24
2021/05/29 00:17:51;;;;;;;1.73;1.60;;;17.70;65.50;;;;;;10627207;27;20194;-22
2021/05/29 00:23:13;;;;;;;2.23;1.87;;;17.70;65.80;;;;;;10622772;27;20214;-22
2021/05/29 00:28:36;;;;;;;1.77;1.50;;;17.70;65.70;;;;;;10633994;27;20201;-22
2021/05/29 00:33:58;;;;;;;1.70;1.50;;;17.70;65.60;;;;;;10634385;27;20261;-22
2021/05/29 00:39:20;;;;;;;1.60;1.50;;;17.60;65.90;;;;;;10665441;27;20220;-22
2021/05/29 00:44:46;;;;;;;1.50;1.40;;;17.60;65.60;;;;;;10583003;28;20222;-22
2021/05/29 00:50:11;;;;;;;1.63;1.47;;;17.60;65.40;;;;;;10584398;28;20229;-23
2021/05/29 00:55:32;;;;;;;1.63;1.53;;;17.60;65.30;;;;;;10583391;28;20611;-23
2021/05/29 01:00:55;;;;;;;1.80;1.70;;;17.70;65.70;;;;;;10581952;28;20245;-22
2021/05/29 01:06:17;;;;;;;1.40;1.30;;;17.60;65.20;;;;;;10623952;27;20266;-23
2021/05/29 01:11:39;;;;;;;2.73;1.70;;;17.70;65.20;;;;;;10625758;27;20210;-22
2021/05/29 01:17:03;;;;;;;1.60;1.50;;;17.60;65.50;;;;;;10624981;27;20193;-22
2021/05/29 01:22:44;;;;;;;1.60;1.50;;;17.70;65.50;;;;;;10624787;27;20218;-22
2021/05/29 01:28:10;;;;;;;1.70;1.60;;;17.70;65.70;;;;;;10625064;27;20197;-23
2021/05/29 01:33:34;;;;;;;1.73;1.60;;;17.60;65.60;;;;;;10628912;27;20645;-22
2021/05/29 01:43:57;;;;;;;1.60;1.47;;;17.60;65.60;;;;;;10549628;22;20327;-24
2021/05/29 01:49:18;;;;;;;2.23;1.60;;;17.60;65.40;;;;;;10528367;28;20220;-24
2021/05/29 01:54:40;;;;;;;3.27;1.67;;;17.60;65.60;;;;;;10499068;28;20199;-24
2021/05/29 02:00:04;;;;;;;1.47;1.27;;;17.60;65.40;;;;;;10534561;28;20229;-28
2021/05/29 02:05:27;;;;;;;1.60;1.50;;;17.60;65.40;;;;;;10577150;28;20708;-24
2021/05/29 02:10:50;;;;;;;1.97;1.60;;;17.70;65.30;;;;;;10580683;28;20229;-25
2021/05/29 02:16:14;;;;;;;1.77;1.37;;;17.60;65.50;;;;;;10580451;28;20550;-25
2021/05/29 02:21:35;;;;;;;1.47;1.37;;;17.60;65.60;;;;;;10564595;28;20276;-30
2021/05/29 02:26:57;;;;;;;1.77;1.40;;;17.60;65.70;;;;;;10531936;28;20227;-25
2021/05/29 02:32:19;;;;;;;1.40;1.27;;;17.60;65.60;;;;;;10544128;28;20218;-26
2021/05/29 02:37:41;;;;;;;1.53;1.40;;;17.70;65.40;;;;;;10495952;28;20196;-25
2021/05/29 02:43:03;;;;;;;1.90;1.53;;;17.60;65.40;;;;;;10552845;28;20264;-27
2021/05/29 02:48:25;;;;;;;1.40;1.30;;;17.60;65.50;;;;;;10579104;28;20197;-24
2021/05/29 02:53:47;;;;;;;2.10;1.60;;;17.60;65.70;;;;;;10579340;28;20681;-24
2021/05/29 02:59:08;;;;;;;1.80;1.70;;;17.60;65.20;;;;;;10559710;28;20668;-25
2021/05/29 03:04:31;;;;;;;1.97;1.60;;;17.60;65.50;;;;;;10578239;28;20589;-27
2021/05/29 03:09:52;;;;;;;1.73;1.43;;;17.60;65.30;;;;;;10577780;28;20214;-27
2021/05/29 03:15:16;;;;;;;2.97;1.77;;;17.60;65.10;;;;;;10577876;28;20194;-24
2021/05/29 03:20:39;;;;;;;1.80;1.57;;;17.60;65.10;;;;;;10578001;28;20684;-25
2021/05/29 03:26:00;;;;;;;1.93;1.63;;;17.60;65.20;;;;;;10577274;28;20230;-24
2021/05/29 03:31:22;;;;;;;2.07;1.70;;;17.60;65.50;;;;;;10574943;28;20218;-24
2021/05/29 03:36:44;;;;;;;2.80;1.70;;;17.60;65.30;;;;;;10534947;28;20195;-24
2021/05/29 03:42:07;;;;;;;2.17;1.53;;;17.60;65.60;;;;;;10555299;28;20237;-22
2021/05/29 03:47:28;;;;;;;1.50;1.40;;;17.60;65.20;;;;;;10577661;28;20684;-25
2021/05/29 03:52:51;;;;;;;1.77;1.50;;;17.60;65.30;;;;;;10576064;28;20218;-26
2021/05/29 03:58:13;;;;;;;2.00;1.70;;;17.60;65.50;;;;;;10576851;28;20228;-24
2021/05/29 04:03:35;;;;;;;1.40;1.30;;;17.60;65.80;;;;;;10576486;28;20704;-24
2021/05/29 04:08:57;;;;;;;2.77;1.67;;;17.60;65.20;;;;;;10573204;28;20669;-18
2021/05/29 04:14:19;;;;;;;1.87;1.30;;;17.60;65.20;;;;;;10530915;28;20206;-24
2021/05/29 04:19:41;;;;;;;1.87;1.70;;;17.60;65.10;;;;;;10532968;28;20720;-26
2021/05/29 04:25:04;;;;;;;1.90;1.70;;;17.60;65.20;;;;;;10533021;28;20229;-24
2021/05/29 04:30:27;;;;;;;1.77;1.47;;;17.60;65.10;;;;;;10534639;28;20219;-26
2021/05/29 04:35:49;;;;;;;1.37;1.27;;;17.60;65.20;;;;;;10492616;28;20195;-24
2021/05/29 04:41:11;;;;;;;2.10;1.90;;;17.60;65.20;;;;;;10517753;28;20270;-25
2021/05/29 04:46:38;;;;;;;1.50;1.40;;;17.60;65.40;;;;;;10540183;28;20560;-25
2021/05/29 04:52:00;;;;;;;1.70;1.53;;;17.60;65.30;;;;;;10493217;28;20221;-23
2021/05/29 04:57:22;;;;;;;1.90;1.53;;;17.60;65.10;;;;;;10492168;28;20197;-25
2021/05/29 05:02:44;;;;;;;1.60;1.50;;;17.60;65.00;;;;;;10497423;28;20238;-25
2021/05/29 05:08:06;;;;;;;1.90;1.47;;;17.60;65.10;;;;;;10540612;28;20596;-26
2021/05/29 05:13:30;;;;;;;1.83;1.43;;;17.60;64.90;;;;;;10540465;28;20207;-27
2021/05/29 05:18:51;;;;;;;1.53;1.43;;;17.60;65.00;;;;;;10539881;28;20199;-24
2021/05/29 05:24:13;;;;;;;1.73;1.63;;;17.60;65.10;;;;;;10539489;28;20207;-24
2021/05/29 05:29:35;;;;;;;1.73;1.50;;;17.60;65.20;;;;;;10539371;28;20225;-26
2021/05/29 05:34:57;;;;;;;2.10;1.60;;;17.60;65.00;;;;;;10539273;28;20720;-24
2021/05/29 05:40:19;;;;;;;1.80;1.70;;;17.60;65.20;;;;;;10546536;28;20305;-24
2021/05/29 05:45:41;;;;;;;1.87;1.50;;;17.60;65.10;;;;;;10541980;28;20233;-26
2021/05/29 05:51:03;;;;;;;1.50;1.40;;;17.60;65.10;;;;;;10539676;28;20261;-24
2021/05/29 05:56:28;;;;;;;1.87;1.63;;;17.60;65.10;;;;;;10538970;28;20195;-25
2021/05/29 06:01:50;;;;;;;1.67;1.57;;;17.60;65.20;;;;;;10539400;28;20225;-25
2021/05/29 06:07:12;;;;;;;2.07;1.50;;;17.60;65.30;;;;;;10550657;28;20214;-24
2021/05/29 06:12:34;;;;;;;1.60;1.50;;;17.50;65.50;;;;;;10579322;28;20634;-23
2021/05/29 06:18:04;;;;;;;2.47;1.60;;;17.60;65.30;;;;;;10543705;28;20226;-26
2021/05/29 06:23:26;;;;;;;1.60;1.40;;;17.60;65.30;;;;;;10538693;28;20241;-25
2021/05/29 06:28:47;;;;;;;6.60;2.00;;;17.60;65.20;;;;;;10538472;28;20692;-25
2021/05/29 06:34:10;;;;;;;5.03;1.90;;;17.60;64.80;;;;;;10538481;28;20203;-26
2021/05/29 06:39:31;;;;;;;4.20;2.53;;;17.60;64.80;;;;;;10536761;28;20222;-25
2021/05/29 06:44:53;;;;;;;3.40;2.20;;;17.60;64.30;;;;;;10550390;28;20211;-19
2021/05/29 06:50:16;;;;;;;4.00;1.77;;;17.60;64.20;;;;;;10535239;28;20223;-25
2021/05/29 07:01:18;;;;;;;4.80;3.07;;;17.60;64.20;;;;;;10527804;28;20644;-22
2021/05/29 07:06:41;;;;;;;4.00;2.53;;;17.40;60.10;;;;;;10564695;28;20214;-24
2021/05/29 07:12:03;;;;;;;3.17;2.13;;;17.40;62.90;;;;;;10531288;28;20218;-24
2021/05/29 07:17:29;;;;;;;2.47;2.13;;;17.50;63.90;;;;;;10520014;28;20203;-25
2021/05/29 07:22:51;;;;;;;2.60;2.20;;;17.40;64.90;;;;;;10531567;28;20601;-25
2021/05/29 07:28:13;;;;;;;3.83;2.63;;;17.50;64.70;;;;;;10514155;28;20200;-25
2021/05/29 07:33:34;;;;;;;3.53;2.37;;;17.50;64.80;;;;;;10525974;28;20215;-24
2021/05/29 07:38:57;;;;;;;5.43;2.87;;;17.50;64.40;;;;;;10492921;28;20218;-25
2021/05/29 07:44:19;;;;;;;7.07;2.77;;;17.60;64.60;;;;;;10579891;22;20231;-22
2021/05/29 07:49:41;;;;;;;4.27;2.80;;;17.60;64.70;;;;;;10567941;28;20252;-22
2021/05/29 07:55:05;;;;;;;5.63;2.93;;;17.60;65.00;;;;;;10568039;28;20194;-24
2021/05/29 08:00:27;;;;;;;4.03;2.93;;;17.60;64.50;;;;;;10559892;28;20214;-24
2021/05/29 08:05:50;;;;;;;5.87;2.83;;;17.60;64.60;;;;;;10555824;28;20246;-22
2021/05/29 08:11:17;;;;;;;4.30;2.73;;;17.60;62.80;;;;;;10554013;28;20218;-23
2021/05/29 08:16:40;;;;;;;3.83;2.60;;;17.60;64.70;;;;;;10576649;28;20195;-23
2021/05/29 08:22:01;;;;;;;3.80;2.80;;;17.60;64.80;;;;;;10575596;28;20211;-23
2021/05/29 08:27:24;;;;;;;4.67;2.73;;;17.60;65.10;;;;;;10533973;28;20219;-23
2021/05/29 08:32:46;;;;;;;7.27;2.70;;;17.60;65.10;;;;;;10532887;28;20219;-22
2021/05/29 08:38:07;;;;;;;2.83;2.40;;;17.70;65.40;;;;;;10539884;28;20575;-23
2021/05/29 08:43:30;;;;;;;3.10;2.23;;;17.60;65.50;;;;;;10574133;28;20696;-22
2021/05/29 08:48:52;;;;;;;4.70;2.80;;;17.60;65.70;;;;;;10565327;28;20217;-22
2021/05/29 08:54:14;;;;;;;7.77;2.70;;;17.60;65.50;;;;;;10553792;28;20225;-22
2021/05/29 08:59:36;;;;;;;4.30;2.43;;;17.60;65.20;;;;;;10541231;28;20210;-22
2021/05/29 09:05:05;;;;;;;5.47;2.70;;;17.60;65.50;;;;;;10554602;28;20570;-23
2021/05/29 09:10:27;;;;;;;4.23;2.27;;;17.60;65.50;;;;;;10583926;28;20272;-22
2021/05/29 09:15:53;;;;;;;3.43;2.60;;;17.60;65.40;;;;;;10582875;28;20665;-22
2021/05/29 09:21:27;;;;;;;3.47;2.60;;;17.60;65.20;;;;;;10564867;28;20214;-23
2021/05/29 09:26:50;;;;;;;4.93;2.50;;;17.60;65.40;;;;;;10582156;28;20215;-24
2021/05/29 09:32:13;;;;;;;4.40;2.30;;;17.60;65.60;;;;;;10581752;28;20221;-23
2021/05/29 09:37:35;;;;;;;4.13;2.40;;;17.50;65.40;;;;;;10582415;28;20187;-22
2021/05/29 09:43:04;;;;;;;3.67;2.20;;;17.50;65.30;;;;;;10581649;28;20230;-22
2021/05/29 09:48:27;;;;;;;3.90;2.13;;;17.50;65.40;;;;;;10573351;28;20202;-22
2021/05/29 09:53:50;;;;;;;3.93;2.20;;;17.60;65.30;;;;;;10569984;28;20206;-23
2021/05/29 09:59:13;;;;;;;3.30;2.27;;;17.50;65.30;;;;;;10537014;28;20202;-24
2021/05/29 10:04:40;;;;;;;3.20;2.17;;;17.50;65.30;;;;;;10537406;28;20227;-23
2021/05/29 10:10:01;;;;;;;2.33;1.80;;;17.50;65.10;;;;;;10538917;28;20199;-22
2021/05/29 10:15:24;;;;;;;4.07;2.00;;;17.50;65.50;;;;;;10539005;28;20194;-22
2021/05/29 10:20:46;;;;;;;5.17;2.30;;;17.50;65.70;;;;;;10537866;28;20215;-22
2021/05/29 10:26:09;;;;;;;10.35;2.35;;;17.50;66.10;;;;;;10541583;28;20434;-22
2021/05/29 10:31:34;;;;;;;8.83;2.70;;;17.70;64.90;;;;;;10551222;28;20218;-22
2021/05/29 10:36:58;;;;;;;22.60;4.57;;;17.60;66.20;;;;;;10558337;28;20189;-22
2021/05/29 10:42:30;;;;;;;12.77;3.47;;;17.50;63.50;;;;;;10565640;28;20271;-22
2021/05/29 10:48:07;;;;;;;5.23;2.80;;;17.20;56.70;;;;;;10555071;28;20226;-22
2021/05/29 10:53:53;;;;;;;6.23;3.47;;;16.90;56.10;;;;;;10563696;28;20217;-22
2021/05/29 10:59:18;;;;;;;4.47;3.37;;;16.70;56.90;;;;;;10559767;28;20235;-22
2021/05/29 11:04:39;;;;;;;4.97;3.10;;;16.60;57.20;;;;;;10560942;28;20573;-22
2021/05/29 11:10:03;;;;;;;3.80;2.60;;;16.50;57.50;;;;;;10553876;28;20193;-23
2021/05/29 11:15:57;;;;;;;5.47;2.67;;;16.70;59.30;;;;;;10560300;28;20277;-22
2021/05/29 11:21:18;;;;;;;3.60;2.67;;;16.90;60.90;;;;;;10564284;28;20218;-22
2021/05/29 11:26:41;;;;;;;3.63;2.20;;;17.10;61.40;;;;;;10550152;28;20208;-23
2021/05/29 11:32:03;;;;;;;5.60;2.40;;;17.10;62.10;;;;;;10552357;28;20219;-23
2021/05/29 11:37:25;;;;;;;3.50;2.40;;;17.20;62.90;;;;;;10553898;28;20221;-22
2021/05/29 11:42:51;;;;;;;4.70;2.43;;;17.20;63.10;;;;;;10557626;28;20718;-22
2021/05/29 11:48:15;;;;;;;5.30;2.00;;;17.20;63.10;;;;;;10563136;28;20214;-22
2021/05/29 11:53:41;;;;;;;4.37;2.40;;;17.30;63.40;;;;;;10554805;28;20235;-23
2021/05/29 11:59:05;;;;;;;7.20;2.40;;;17.30;63.70;;;;;;10560531;28;20202;-23
2021/05/29 12:04:29;;;;;;;4.57;2.40;;;17.30;63.90;;;;;;10562207;28;20218;-22
2021/05/29 12:09:52;;;;;;;5.00;1.97;;;17.30;64.10;;;;;;10554810;28;20683;-22
2021/05/29 12:15:14;;;;;;;3.77;2.00;;;17.30;63.90;;;;;;10560555;28;20209;-22
2021/05/29 12:20:53;;;;;;;4.63;2.33;;;17.30;64.20;;;;;;10562928;28;20228;-22
2021/05/29 12:26:14;;;;;;;3.73;2.37;;;17.30;64.20;;;;;;10558836;28;20672;-22
2021/05/29 12:31:45;;;;;;;2.90;1.83;;;17.30;64.10;;;;;;10563767;28;20215;-22
2021/05/29 12:37:09;;;;;;;6.10;2.60;;;17.30;64.60;;;;;;10560166;28;20198;-23
2021/05/29 12:42:34;;;;;;;3.77;2.20;;;17.30;64.70;;;;;;10539069;28;20226;-22
2021/05/29 12:47:58;;;;;;;6.03;2.30;;;17.40;65.40;;;;;;10525384;28;20223;-23
2021/05/29 12:53:19;;;;;;;9.40;2.80;;;17.40;65.00;;;;;;10537135;28;20234;-22
2021/05/29 12:58:56;;;;;;;8.83;2.83;;;17.30;65.50;;;;;;10527977;28;20214;-23
2021/05/29 13:10:24;;;;;;;7.83;3.00;;;17.40;65.00;;;;;;10470016;28;20212;-22
2021/05/29 13:16:00;;;;;;;5.80;2.70;;;17.40;65.70;;;;;;10522151;28;20199;-23
2021/05/29 13:21:22;;;;;;;7.33;2.97;;;17.30;65.70;;;;;;10501787;28;20214;-24
2021/05/29 13:26:48;;;;;;;6.70;3.20;;;17.40;65.70;;;;;;10536995;28;20271;-23
2021/05/29 13:32:10;;;;;;;7.03;2.87;;;17.40;65.80;;;;;;10538658;28;20215;-28
2021/05/29 13:37:33;;;;;;;3.13;2.60;;;17.40;65.80;;;;;;10539646;28;20285;-22
2021/05/29 13:42:55;;;;;;;4.67;2.60;;;17.30;65.80;;;;;;10556149;22;20246;-24
2021/05/29 13:48:16;;;;;;;4.03;2.30;;;17.30;65.80;;;;;;10532018;28;20223;-23
2021/05/29 13:53:39;;;;;;;4.20;2.50;;;17.40;65.90;;;;;;10538166;28;20250;-23
2021/05/29 13:59:01;;;;;;;3.50;2.40;;;17.40;66.20;;;;;;10531146;28;20200;-24
2021/05/29 14:04:22;;;;;;;3.93;2.67;;;17.40;66.20;;;;;;10522783;28;20229;-26
2021/05/29 14:09:45;;;;;;;7.23;2.73;;;17.40;65.90;;;;;;10538757;28;20199;-23
2021/05/29 14:15:08;;;;;;;7.70;3.00;;;17.40;65.60;;;;;;10535476;28;20492;-24
2021/05/29 14:20:30;;;;;;;6.30;2.97;;;17.30;66.00;;;;;;10531514;28;20205;-22
2021/05/29 14:25:52;;;;;;;3.43;2.53;;;17.30;66.10;;;;;;10529491;28;20234;-26
2021/05/29 14:31:14;;;;;;;6.53;2.90;;;17.30;66.10;;;;;;10532055;28;20218;-24
2021/05/29 14:36:36;;;;;;;3.40;2.17;;;17.30;66.30;;;;;;10532690;28;20202;-22
2021/05/29 14:41:59;;;;;;;3.27;2.10;;;17.30;66.20;;;;;;10530215;28;20229;-23
2021/05/29 14:47:21;;;;;;;2.37;2.10;;;17.30;66.00;;;;;;10532056;28;20297;-23
2021/05/29 14:52:42;;;;;;;3.57;2.23;;;17.20;66.00;;;;;;10535339;28;20222;-24
2021/05/29 14:58:05;;;;;;;4.67;2.37;;;17.30;66.10;;;;;;10535804;28;20663;-26
2021/05/29 15:03:27;;;;;;;31.50;4.17;;;17.30;66.20;;;;;;10536922;28;20229;-27
2021/05/29 15:08:49;;;;;;;85.87;8.20;;;17.20;65.90;;;;;;10534273;28;20291;-25
2021/05/29 15:14:12;;;;;;;80.10;9.30;;;17.30;66.60;;;;;;10535385;28;20578;-26
2021/05/29 15:19:33;;;;;;;59.30;8.03;;;17.20;66.60;;;;;;10533898;28;20202;-25
2021/05/29 15:24:55;;;;;;;51.63;6.73;;;17.30;66.70;;;;;;10534535;28;20238;-23
2021/05/29 15:30:21;;;;;;;52.00;7.33;;;17.20;66.60;;;;;;10535320;28;20202;-23
2021/05/29 15:35:44;;;;;;;98.47;9.77;;;17.20;66.90;;;;;;10535897;28;20216;-23
2021/05/29 15:41:06;;;;;;;25.20;5.20;;;17.20;66.20;;;;;;10534424;28;20225;-23
2021/05/29 15:46:28;;;;;;;18.00;4.30;;;17.10;61.60;;;;;;10534383;28;20259;-22
2021/05/29 15:51:50;;;;;;;9.30;3.90;;;16.90;59.80;;;;;;10534394;28;20560;-23
2021/05/29 15:57:12;;;;;;;9.00;3.17;;;16.80;59.90;;;;;;10534483;28;20186;-22
2021/05/29 16:02:35;;;;;;;8.27;3.57;;;16.70;60.70;;;;;;10533215;28;20211;-23
2021/05/29 16:07:57;;;;;;;8.60;3.67;;;16.60;59.80;;;;;;10535122;28;20754;-25
2021/05/29 16:13:19;;;;;;;8.00;3.77;;;16.60;60.60;;;;;;10533854;28;20223;-22
2021/05/29 16:18:41;;;;;;;4.03;2.80;;;16.60;60.30;;;;;;10533769;28;20250;-25
2021/05/29 16:24:07;;;;;;;4.33;2.90;;;16.70;60.70;;;;;;10532885;28;20217;-23
2021/05/29 16:29:29;;;;;;;4.60;3.03;;;16.70;59.50;;;;;;10534707;28;20193;-22
2021/05/29 16:34:52;;;;;;;3.73;3.07;;;16.70;57.50;;;;;;10528341;28;20220;-24
2021/05/29 16:40:14;;;;;;;6.60;3.00;;;16.70;57.50;;;;;;10531498;28;20621;-23
2021/05/29 16:45:36;;;;;;;4.53;2.97;;;16.70;58.60;;;;;;10532396;28;20236;-25
2021/05/29 16:51:03;;;;;;;4.00;2.60;;;16.70;59.10;;;;;;10496742;28;20224;-23
2021/05/29 16:56:24;;;;;;;3.73;2.80;;;16.80;59.60;;;;;;10488341;28;20256;-25
2021/05/29 17:01:46;;;;;;;6.37;2.60;;;16.80;59.90;;;;;;10536315;28;20213;-23
2021/05/29 17:07:08;;;;;;;3.40;2.17;;;16.80;60.10;;;;;;10535904;28;20224;-25
2021/05/29 17:12:31;;;;;;;6.53;2.30;;;16.70;59.40;;;;;;10533579;28;20227;-23
2021/05/29 17:17:52;;;;;;;8.30;2.47;;;16.70;59.40;;;;;;10533482;28;20205;-23
2021/05/29 17:23:15;;;;;;;3.90;2.30;;;16.80;60.20;;;;;;10533304;28;20594;-24
2021/05/29 17:28:37;;;;;;;6.00;2.77;;;16.70;60.30;;;;;;10535616;28;20225;-22
2021/05/29 17:33:59;;;;;;;4.63;2.80;;;16.90;61.90;;;;;;10533857;28;20292;-23
2021/05/29 17:39:21;;;;;;;2.63;2.07;;;16.90;60.50;;;;;;10534911;28;20206;-23
2021/05/29 17:44:43;;;;;;;5.17;2.83;;;16.90;59.80;;;;;;10492877;28;20739;-23
2021/05/29 17:50:06;;;;;;;3.50;2.37;;;16.90;60.00;;;;;;10518200;28;20253;-22
2021/05/29 17:55:28;;;;;;;4.00;2.60;;;16.90;59.90;;;;;;10531823;28;20574;-27
2021/05/29 18:00:52;;;;;;;3.63;2.23;;;16.90;59.80;;;;;;10533707;28;20537;-26
2021/05/29 18:06:14;;;;;;;3.73;2.20;;;16.90;59.50;;;;;;10537145;28;20228;-23
2021/05/29 18:11:36;;;;;;;4.00;2.60;;;16.70;60.20;;;;;;10536239;28;20221;-25
2021/05/29 18:16:58;;;;;;;5.77;2.60;;;16.70;60.80;;;;;;10539174;28;20200;-24
2021/05/29 18:22:19;;;;;;;4.50;2.73;;;16.70;60.90;;;;;;10537079;28;20221;-26
2021/05/29 18:27:43;;;;;;;2.30;2.00;;;16.60;60.90;;;;;;10537130;28;20215;-23
2021/05/29 18:33:05;;;;;;;2.87;2.10;;;16.20;61.50;;;;;;10537895;28;20252;-23
2021/05/29 18:44:07;;;;;;;3.50;2.60;;;15.90;63.30;;;;;;10537259;28;20224;-23
2021/05/29 18:49:29;;;;;;;4.90;3.10;;;15.80;63.80;;;;;;10534414;28;20212;-22
2021/05/29 18:54:51;;;;;;;5.03;2.70;;;15.60;64.20;;;;;;10530901;28;20240;-23
2021/05/29 19:06:15;;;;;;;4.73;2.77;;;16.00;63.80;;;;;;10521676;28;20211;-23
2021/05/29 19:11:38;;;;;;;3.33;2.77;;;16.20;63.00;;;;;;10534266;28;20746;-24
2021/05/29 19:17:00;;;;;;;4.43;2.30;;;16.40;62.50;;;;;;10536430;28;20200;-23
2021/05/29 19:22:28;;;;;;;3.67;2.77;;;16.40;62.40;;;;;;10531940;28;20217;-22
2021/05/29 19:27:56;;;;;;;3.17;2.60;;;16.50;62.50;;;;;;10534634;28;20213;-26
2021/05/29 19:33:37;;;;;;;4.37;2.90;;;16.40;62.80;;;;;;10533122;28;20297;-23
2021/05/29 19:39:07;;;;;;;4.90;4.20;;;16.40;62.80;;;;;;10529127;28;20279;-23
2021/05/29 20:12:20;;;;;;;3.77;3.23;;;16.30;62.70;;;;;;10619134;28;20194;-23
2021/05/29 20:23:39;;;;;;;4.73;3.30;;;16.10;63.30;;;;;;10618375;28;20202;-23
2021/05/29 20:29:01;;;;;;;4.80;3.17;;;16.10;63.20;;;;;;10617332;28;20241;-23
2021/05/29 20:40:06;;;;;;;4.67;3.50;;;15.90;64.00;;;;;;10630281;27;20258;-23
2021/05/29 20:45:31;;;;;;;5.67;3.90;;;15.80;64.30;;;;;;10640041;27;20748;-24
2021/05/29 20:50:56;;;;;;;6.83;4.00;;;15.70;64.40;;;;;;10626486;27;20685;-22
2021/05/29 20:56:19;;;;;;;6.80;4.20;;;15.70;65.40;;;;;;10622094;27;20534;-23
2021/05/29 21:01:41;;;;;;;6.43;4.70;;;15.70;64.90;;;;;;10627002;27;20214;-23
2021/05/29 21:07:06;;;;;;;5.37;4.60;;;15.70;65.00;;;;;;10625071;27;20633;-23
2021/05/29 21:12:29;;;;;;;5.47;4.60;;;15.70;65.00;;;;;;10626167;27;20752;-23
2021/05/29 21:23:31;;;;;;;10.13;4.97;;;15.50;65.20;;;;;;10624052;27;20202;-23
2021/05/29 21:28:54;;;;;;;5.60;4.53;;;15.50;65.30;;;;;;10620688;27;20214;-23
2021/05/29 21:34:16;;;;;;;7.43;4.20;;;15.40;65.30;;;;;;10615474;27;20246;-24
2021/05/29 21:39:37;;;;;;;7.27;4.70;;;15.40;65.40;;;;;;10624239;27;20187;-23
2021/05/29 21:45:11;;;;;;;8.73;4.83;;;15.40;65.50;;;;;;10623904;27;20218;-22
2021/05/29 21:50:32;;;;;;;5.07;4.13;;;15.30;65.40;;;;;;10610999;27;20223;-22
2021/05/29 21:55:59;;;;;;;6.70;4.73;;;15.40;65.20;;;;;;10623087;27;20190;-22
2021/05/29 22:01:23;;;;;;;5.33;4.50;;;15.30;65.20;;;;;;10623007;27;20580;-22
2021/05/29 22:06:45;;;;;;;6.53;4.40;;;15.30;65.50;;;;;;10626399;27;20207;-22
2021/05/29 22:12:18;;;;;;;5.00;4.50;;;15.20;65.50;;;;;;10589084;27;20218;-21
2021/05/29 22:18:09;;;;;;;7.70;5.23;;;15.30;65.40;;;;;;10622397;27;20534;-22
2021/05/29 22:29:23;;;;;;;7.97;5.30;;;15.30;65.40;;;;;;10583745;27;20214;-22
2021/05/29 22:34:46;;;;;;;6.77;5.17;;;15.20;65.30;;;;;;10629802;27;20685;-22
2021/05/29 22:40:08;;;;;;;8.20;5.13;;;15.10;65.50;;;;;;10623619;27;20190;-22
2021/05/29 22:45:30;;;;;;;7.70;5.00;;;15.00;65.50;;;;;;10622268;27;20626;-22
2021/05/29 22:50:52;;;;;;;8.93;5.20;;;15.00;65.60;;;;;;10623760;27;20235;-22
2021/05/29 22:56:14;;;;;;;9.20;4.83;;;14.90;65.90;;;;;;10615488;27;20190;-22
2021/05/29 23:01:35;;;;;;;7.33;4.67;;;15.00;65.80;;;;;;10621165;27;20216;-22
2021/05/29 23:06:58;;;;;;;8.83;5.17;;;15.00;65.80;;;;;;10621618;27;20221;-22
2021/05/29 23:12:20;;;;;;;7.80;5.20;;;14.90;65.90;;;;;;10620404;27;20243;-23
2021/05/29 23:17:41;;;;;;;8.73;5.67;;;15.00;65.70;;;;;;10619637;27;20189;-22
2021/05/29 23:23:05;;;;;;;8.33;5.23;;;15.00;65.70;;;;;;10620687;27;20224;-22
2021/05/29 23:28:26;;;;;;;6.90;5.27;;;14.90;65.80;;;;;;10582385;27;20224;-22
2021/05/29 23:33:48;;;;;;;6.53;4.83;;;14.90;65.90;;;;;;10638963;27;20264;-22
2021/05/29 23:39:10;;;;;;;8.73;4.90;;;14.90;65.70;;;;;;10578135;28;20190;-22
2021/05/29 23:44:32;;;;;;;7.70;4.93;;;14.80;65.90;;;;;;10594934;27;20395;-22
2021/05/29 23:49:54;;;;;;;5.80;4.57;;;14.70;65.80;;;;;;10617817;27;20198;-22
2021/05/29 23:55:16;;;;;;;8.17;5.47;;;14.70;65.90;;;;;;10618027;27;20715;-22
